Alexandria Bay, New York
Current Conditions -  °F | °C
As of 12:44 AM on Thursday 27 Nov 2014 (Local Time) from KGTB Reporting Station
Scattered Clouds Scattered Clouds  
Wind Chill: 17°   Ceiling: Unl
Heat Index: 25°   Visibility: 10mi
Dew Point: 25°   Wind: 7mph
Humidity: 100%   Direction: 10°N
Pressure: 29.98"   Gusts: NA
Location:  44.34°N, 75.92°W
Report Text: KGTB 270544Z AUTO 01006KT 10SM FEW007 SCT016 SCT080 M04/M04 A2998 RMK AO2 UPE0543
Loading
Personal Weather Stations






























Interactive Weather Map New forecast layout! Learn more

10-Day Weather Forecast

Advertisements
Track Severe Weather on mobile